createdAt,value
2023-01-19T00:00:28.038Z,3.84
2023-01-19T00:02:54.893Z,3.83
2023-01-19T00:05:21.467Z,3.86
2023-01-19T00:07:48.019Z,3.86
2023-01-19T00:10:14.576Z,3.85
2023-01-19T00:12:40.988Z,3.84
2023-01-19T00:15:08.214Z,3.83
2023-01-19T00:17:34.677Z,3.79
2023-01-19T00:20:01.104Z,3.75
2023-01-19T00:22:27.590Z,3.76
2023-01-19T00:24:53.965Z,3.75
2023-01-19T00:27:20.358Z,3.70
2023-01-19T00:29:46.754Z,3.76
2023-01-19T00:32:13.174Z,3.75
2023-01-19T00:34:42.568Z,3.78
2023-01-19T00:37:09.954Z,3.76
2023-01-19T00:39:36.461Z,3.79
2023-01-19T00:42:22.095Z,3.82
2023-01-19T00:44:48.689Z,3.84
2023-01-19T00:47:15.082Z,3.81
2023-01-19T00:49:41.479Z,3.81
2023-01-19T00:52:08.006Z,3.79
2023-01-19T00:54:34.516Z,3.71
2023-01-19T00:57:01.351Z,3.78
2023-01-19T00:59:27.736Z,3.83
2023-01-19T01:01:54.664Z,3.88
2023-01-19T01:04:21.244Z,3.86
2023-01-19T01:06:47.648Z,3.92
2023-01-19T01:09:14.030Z,3.96
2023-01-19T01:11:42.340Z,3.96
2023-01-19T01:14:10.215Z,4.01
2023-01-19T01:16:36.638Z,3.98
2023-01-19T01:19:03.176Z,4.02
2023-01-19T01:21:29.602Z,4.02
2023-01-19T01:23:56.189Z,4.00
2023-01-19T01:26:22.617Z,3.95
2023-01-19T01:28:49.038Z,3.91
2023-01-19T01:31:15.615Z,3.87
2023-01-19T01:33:42.133Z,3.85
2023-01-19T01:36:09.815Z,3.89
2023-01-19T01:38:36.219Z,3.87
2023-01-19T01:41:02.733Z,3.85
2023-01-19T01:43:58.143Z,3.88
2023-01-19T01:46:26.858Z,3.87
2023-01-19T01:49:07.519Z,3.86
2023-01-19T01:51:48.073Z,3.87
2023-01-19T01:54:29.367Z,3.82
2023-01-19T01:57:00.195Z,3.86
2023-01-19T01:59:34.635Z,3.89
2023-01-19T02:02:25.759Z,3.86
2023-01-19T02:04:58.375Z,3.80
2023-01-19T02:07:58.275Z,3.69
2023-01-19T02:10:43.643Z,3.72
2023-01-19T02:13:23.009Z,3.69
2023-01-19T02:15:55.660Z,3.72
2023-01-19T02:18:26.385Z,3.75
2023-01-19T02:21:29.809Z,3.64
2023-01-19T02:23:58.250Z,3.57
2023-01-19T02:26:29.730Z,3.56
2023-01-19T02:29:07.125Z,3.46
2023-01-19T02:31:35.186Z,3.41
2023-01-19T02:34:03.989Z,3.41
2023-01-19T02:36:42.829Z,3.47
2023-01-19T02:39:11.161Z,3.57
2023-01-19T02:41:51.563Z,3.64
2023-01-19T02:44:20.248Z,3.63
2023-01-19T02:46:47.390Z,3.66
2023-01-19T02:49:14.180Z,3.69
2023-01-19T02:51:43.994Z,3.77
2023-01-19T02:54:27.010Z,3.86
2023-01-19T02:57:01.450Z,3.95
2023-01-19T02:59:33.657Z,4.01
2023-01-19T03:02:21.877Z,4.04
2023-01-19T03:05:08.358Z,4.04
2023-01-19T03:07:34.681Z,4.06
2023-01-19T03:10:17.194Z,4.09
2023-01-19T03:12:51.692Z,4.04
2023-01-19T03:15:36.418Z,4.07
2023-01-19T03:18:08.535Z,4.07
2023-01-19T03:20:36.552Z,4.04
2023-01-19T03:23:08.298Z,4.02
2023-01-19T03:25:39.249Z,4.01
2023-01-19T03:28:05.837Z,3.98
2023-01-19T03:30:38.761Z,4.02
2023-01-19T03:33:11.196Z,3.98
2023-01-19T03:35:44.449Z,3.99
2023-01-19T03:38:16.587Z,3.93
2023-01-19T03:40:45.143Z,3.90
2023-01-19T03:43:13.014Z,3.89
2023-01-19T03:45:40.019Z,3.89
2023-01-19T03:48:07.072Z,3.90
2023-01-19T03:50:33.496Z,3.94
2023-01-19T03:53:01.942Z,3.92
2023-01-19T03:55:29.036Z,3.92
2023-01-19T03:57:55.403Z,3.95
2023-01-19T04:00:21.820Z,3.95
2023-01-19T04:02:48.292Z,3.96
2023-01-19T04:05:15.406Z,3.97
2023-01-19T04:07:41.866Z,3.97
2023-01-19T04:10:12.546Z,3.99
2023-01-19T04:12:40.038Z,3.99
2023-01-19T04:15:07.103Z,4.03
2023-01-19T04:17:33.679Z,4.03
2023-01-19T04:20:00.379Z,4.06
2023-01-19T04:22:26.981Z,4.10
2023-01-19T04:24:53.431Z,4.09
2023-01-19T04:27:19.848Z,4.08
2023-01-19T04:29:46.291Z,4.09
2023-01-19T04:32:16.014Z,4.11
2023-01-19T04:34:42.463Z,4.10
2023-01-19T04:37:09.096Z,4.09
2023-01-19T04:39:35.764Z,4.10
2023-01-19T04:42:02.427Z,4.13
2023-01-19T04:44:29.177Z,4.14
2023-01-19T04:46:55.655Z,4.08
2023-01-19T04:49:22.121Z,4.13
2023-01-19T04:51:48.527Z,4.16
2023-01-19T04:54:15.055Z,4.16
2023-01-19T04:56:41.572Z,4.21
2023-01-19T04:59:08.160Z,4.25
2023-01-19T05:01:34.995Z,4.26
2023-01-19T05:04:02.039Z,4.28
2023-01-19T05:06:28.414Z,4.25
2023-01-19T05:08:54.825Z,4.28
2023-01-19T05:11:21.439Z,4.29
2023-01-19T05:13:48.747Z,4.33
2023-01-19T05:16:16.672Z,4.35
2023-01-19T05:18:43.179Z,4.39
2023-01-19T05:21:09.619Z,4.38
2023-01-19T05:23:36.054Z,4.41
2023-01-19T05:26:03.161Z,4.43
2023-01-19T05:28:31.252Z,4.44
2023-01-19T05:30:57.875Z,4.46
2023-01-19T05:33:24.852Z,4.45
2023-01-19T05:35:53.063Z,4.46
2023-01-19T05:38:29.375Z,4.49
2023-01-19T05:41:00.488Z,4.48
2023-01-19T05:43:26.974Z,4.49
2023-01-19T05:45:53.444Z,4.50
2023-01-19T05:48:19.891Z,4.50
2023-01-19T05:50:49.248Z,4.49
2023-01-19T05:53:17.101Z,4.50
2023-01-19T05:55:43.646Z,4.51
2023-01-19T05:58:10.143Z,4.49
2023-01-19T06:00:36.617Z,4.43
2023-01-19T06:03:04.051Z,4.38
2023-01-19T06:05:30.822Z,4.38
2023-01-19T06:07:57.219Z,4.39
2023-01-19T06:10:23.738Z,4.34
2023-01-19T06:12:51.689Z,4.38
2023-01-19T06:15:18.616Z,4.33
2023-01-19T06:17:45.102Z,4.39
2023-01-19T06:20:13.897Z,4.43
2023-01-19T06:22:40.314Z,4.44
2023-01-19T06:25:06.978Z,4.44
2023-01-19T06:27:33.379Z,4.45
2023-01-19T06:29:59.781Z,4.45
2023-01-19T06:32:26.254Z,4.42
2023-01-19T06:34:54.027Z,4.38
2023-01-19T06:37:20.637Z,4.37
2023-01-19T06:39:47.082Z,4.36
2023-01-19T06:42:13.500Z,4.36
2023-01-19T06:44:47.092Z,4.39
2023-01-19T06:47:16.359Z,4.40
2023-01-19T06:49:43.680Z,4.39
2023-01-19T06:52:15.917Z,4.42
2023-01-19T06:54:43.485Z,4.42
2023-01-19T06:57:13.087Z,4.41
2023-01-19T06:59:39.468Z,4.41
2023-01-19T07:02:06.298Z,4.45
2023-01-19T07:04:52.677Z,4.49
2023-01-19T07:07:19.100Z,4.46
2023-01-19T07:09:45.519Z,4.43
2023-01-19T07:12:11.933Z,4.38
2023-01-19T07:14:38.360Z,4.32
2023-01-19T07:17:04.728Z,4.31
2023-01-19T07:19:31.209Z,4.29
2023-01-19T07:21:57.892Z,4.28
2023-01-19T07:24:24.376Z,4.31
2023-01-19T07:26:50.803Z,4.36
2023-01-19T07:29:17.192Z,4.35
2023-01-19T07:31:43.740Z,4.37
2023-01-19T07:34:12.493Z,4.37
2023-01-19T07:36:38.996Z,4.39
2023-01-19T07:39:05.401Z,4.40
2023-01-19T07:41:32.437Z,4.38
2023-01-19T07:43:58.853Z,4.37
2023-01-19T07:46:25.333Z,4.39
2023-01-19T07:48:51.821Z,4.38
2023-01-19T07:51:18.893Z,4.36
2023-01-19T07:53:46.549Z,4.33
2023-01-19T07:56:13.147Z,4.27
2023-01-19T07:58:39.825Z,4.24
2023-01-19T08:01:10.919Z,4.25
2023-01-19T08:03:38.032Z,4.21
2023-01-19T08:06:05.351Z,4.21
2023-01-19T08:08:32.981Z,4.22
2023-01-19T08:10:59.749Z,4.22
2023-01-19T08:13:26.720Z,4.24
2023-01-19T08:15:54.140Z,4.17
2023-01-19T08:18:21.019Z,4.17
2023-01-19T08:20:47.588Z,4.15
2023-01-19T08:23:14.013Z,4.11
2023-01-19T08:25:45.022Z,4.14
2023-01-19T08:28:14.122Z,4.20
2023-01-19T08:30:43.383Z,4.20
2023-01-19T08:33:10.488Z,4.22
2023-01-19T08:35:41.918Z,4.30
2023-01-19T08:38:10.023Z,4.33
2023-01-19T08:40:39.005Z,4.36
2023-01-19T08:43:08.652Z,4.40
2023-01-19T08:45:36.780Z,4.40
2023-01-19T08:48:03.936Z,4.42
2023-01-19T08:50:32.014Z,4.39
2023-01-19T08:53:00.777Z,4.42
2023-01-19T08:55:29.198Z,4.42
2023-01-19T08:57:57.847Z,4.40
2023-01-19T09:00:27.143Z,4.44
2023-01-19T09:02:54.796Z,4.45
2023-01-19T09:05:21.330Z,4.45
2023-01-19T09:07:51.613Z,4.52
2023-01-19T09:10:18.737Z,4.64
2023-01-19T09:12:46.294Z,4.77
2023-01-19T09:15:16.063Z,4.86
2023-01-19T09:17:42.511Z,4.87
2023-01-19T09:20:09.692Z,4.92
2023-01-19T09:22:36.171Z,4.95
2023-01-19T09:25:02.688Z,5.03
2023-01-19T09:27:29.109Z,5.10
2023-01-19T09:29:55.501Z,5.17
2023-01-19T09:32:22.808Z,5.21
2023-01-19T09:34:49.248Z,5.21
2023-01-19T09:37:16.205Z,5.26
2023-01-19T09:39:42.779Z,5.29
2023-01-19T09:42:36.431Z,5.32
2023-01-19T09:45:08.605Z,5.33
2023-01-19T09:47:37.226Z,5.38
2023-01-19T09:50:12.465Z,5.43
2023-01-19T09:52:43.782Z,5.46
2023-01-19T09:55:30.645Z,5.47
2023-01-19T09:57:57.107Z,5.40
2023-01-19T10:00:25.483Z,5.46
2023-01-19T10:02:58.578Z,5.42
2023-01-19T10:05:46.682Z,5.44
2023-01-19T10:08:26.984Z,5.45
2023-01-19T10:10:55.588Z,5.49
2023-01-19T10:13:36.680Z,5.50
2023-01-19T10:16:40.481Z,5.53
2023-01-19T10:19:28.510Z,5.59
2023-01-19T10:21:58.698Z,5.66
2023-01-19T10:24:40.420Z,5.69
2023-01-19T10:27:18.416Z,5.72
2023-01-19T10:29:46.190Z,5.75
2023-01-19T10:32:34.119Z,5.79
2023-01-19T10:35:00.956Z,5.83
2023-01-19T10:37:33.453Z,5.77
2023-01-19T10:40:08.894Z,5.79
2023-01-19T10:42:37.097Z,5.79
2023-01-19T10:45:04.888Z,5.82
2023-01-19T10:47:36.283Z,5.76
2023-01-19T10:50:32.368Z,5.58
2023-01-19T10:53:05.892Z,5.55
2023-01-19T10:55:40.520Z,5.58
2023-01-19T10:58:27.898Z,5.65
2023-01-19T11:00:54.435Z,5.69
2023-01-19T11:03:25.234Z,5.57
2023-01-19T11:05:51.700Z,5.61
2023-01-19T11:08:23.677Z,5.68
2023-01-19T11:11:04.293Z,5.72
2023-01-19T11:13:32.116Z,5.81
2023-01-19T11:16:05.468Z,5.80
2023-01-19T11:18:34.791Z,5.79
2023-01-19T11:21:24.305Z,5.75
2023-01-19T11:23:56.143Z,5.68
2023-01-19T11:26:33.630Z,5.57
2023-01-19T11:29:03.146Z,5.37
2023-01-19T11:31:29.552Z,5.34
2023-01-19T11:34:05.503Z,5.40
2023-01-19T11:36:35.532Z,5.48
2023-01-19T11:39:23.489Z,5.44
2023-01-19T11:41:56.196Z,5.38
2023-01-19T11:44:29.277Z,5.28
2023-01-19T11:46:59.642Z,5.22
2023-01-19T11:49:37.673Z,5.13
2023-01-19T11:52:12.758Z,5.15
2023-01-19T11:54:49.368Z,5.20
2023-01-19T11:57:20.114Z,5.32
2023-01-19T11:59:46.620Z,5.45
2023-01-19T12:02:20.649Z,5.58
2023-01-19T12:04:49.180Z,5.73
2023-01-19T12:07:22.415Z,5.88
2023-01-19T12:09:56.446Z,5.79
2023-01-19T12:12:29.952Z,5.76
2023-01-19T12:15:02.276Z,5.83
2023-01-19T12:17:58.248Z,5.78
2023-01-19T12:20:35.017Z,5.72
2023-01-19T12:23:27.858Z,5.71
2023-01-19T12:26:27.878Z,5.66
2023-01-19T12:28:58.542Z,5.62
2023-01-19T12:31:25.174Z,5.67
2023-01-19T12:33:52.016Z,5.65
2023-01-19T12:36:27.750Z,5.75
2023-01-19T12:38:57.058Z,5.75
2023-01-19T12:41:33.708Z,5.74
2023-01-19T12:44:12.307Z,5.67
2023-01-19T12:46:43.575Z,5.57
2023-01-19T12:49:50.383Z,5.61
2023-01-19T12:52:19.587Z,5.50
2023-01-19T12:55:05.036Z,5.54
2023-01-19T12:57:46.426Z,5.52
2023-01-19T13:00:21.839Z,5.52
2023-01-19T13:02:53.924Z,5.50
2023-01-19T13:05:24.807Z,5.63
2023-01-19T13:08:03.506Z,5.88
2023-01-19T13:11:02.082Z,6.04
2023-01-19T13:13:30.561Z,6.07
2023-01-19T13:16:20.300Z,6.13
2023-01-19T13:18:51.312Z,6.15
2023-01-19T13:21:30.392Z,5.98
2023-01-19T13:23:58.906Z,5.77
2023-01-19T13:26:32.806Z,5.78
2023-01-19T13:29:26.541Z,5.81
2023-01-19T13:31:56.133Z,5.82
2023-01-19T13:34:27.817Z,5.94
2023-01-19T13:36:56.981Z,5.94
2023-01-19T13:39:36.786Z,5.94
2023-01-19T13:42:21.949Z,5.91
2023-01-19T13:44:52.372Z,5.84
2023-01-19T13:47:23.841Z,5.81
2023-01-19T13:49:58.378Z,5.70
2023-01-19T13:52:29.498Z,5.62
2023-01-19T13:55:01.347Z,5.57
2023-01-19T13:57:38.692Z,5.57
2023-01-19T14:00:16.135Z,5.63
2023-01-19T14:03:16.267Z,5.65
2023-01-19T14:05:44.240Z,5.64
2023-01-19T14:08:11.316Z,5.65
2023-01-19T14:10:42.307Z,5.68
2023-01-19T14:13:32.085Z,5.65
2023-01-19T14:16:04.767Z,5.63
2023-01-19T14:18:33.172Z,5.60
2023-01-19T14:21:08.813Z,5.57
2023-01-19T14:23:51.508Z,5.53
2023-01-19T14:27:06.511Z,5.51
2023-01-19T14:29:34.915Z,5.48
2023-01-19T14:32:01.253Z,5.39
2023-01-19T14:34:41.613Z,5.30
2023-01-19T14:37:21.917Z,5.28
2023-01-19T14:39:57.091Z,5.29
2023-01-19T14:42:31.037Z,5.29
2023-01-19T14:45:00.776Z,5.28
2023-01-19T14:47:38.087Z,5.35
2023-01-19T14:50:09.373Z,5.39
2023-01-19T14:52:41.968Z,5.36
2023-01-19T14:55:21.402Z,5.31
2023-01-19T14:57:48.196Z,5.28
2023-01-19T15:00:19.886Z,5.23
2023-01-19T15:02:46.935Z,5.20
2023-01-19T15:05:14.556Z,5.18
2023-01-19T15:07:44.193Z,5.14
2023-01-19T15:10:16.990Z,5.19
2023-01-19T15:12:43.584Z,5.23
2023-01-19T15:15:15.284Z,5.28
2023-01-19T15:17:42.475Z,5.26
2023-01-19T15:20:16.349Z,5.15
2023-01-19T15:22:43.359Z,5.14
2023-01-19T15:25:13.534Z,5.14
2023-01-19T15:27:40.051Z,5.15
2023-01-19T15:30:18.131Z,5.18
2023-01-19T15:32:45.004Z,5.24
2023-01-19T15:35:20.380Z,5.24
2023-01-19T15:37:47.482Z,5.20
2023-01-19T15:40:15.173Z,5.16
2023-01-19T15:42:41.771Z,5.10
2023-01-19T15:45:34.446Z,5.04
2023-01-19T15:48:03.783Z,4.99
2023-01-19T15:50:30.217Z,4.97
2023-01-19T15:52:56.757Z,4.95
2023-01-19T15:55:23.311Z,4.95
2023-01-19T15:57:49.742Z,4.95
2023-01-19T16:00:16.714Z,4.93
2023-01-19T16:02:43.160Z,4.93
2023-01-19T16:05:10.207Z,4.96
2023-01-19T16:07:36.967Z,4.96
2023-01-19T16:10:06.266Z,4.95
2023-01-19T16:12:32.682Z,4.95
2023-01-19T16:14:59.071Z,4.93
2023-01-19T16:17:25.493Z,4.93
2023-01-19T16:19:51.905Z,4.91
2023-01-19T16:22:18.314Z,4.86
2023-01-19T16:24:46.493Z,4.86
2023-01-19T16:27:12.859Z,4.83
2023-01-19T16:29:39.302Z,4.80
2023-01-19T16:32:05.714Z,4.76
2023-01-19T16:34:32.142Z,4.72
2023-01-19T16:36:58.840Z,4.71
2023-01-19T16:39:25.416Z,4.67
2023-01-19T16:41:51.789Z,4.66
2023-01-19T16:44:18.861Z,4.63
2023-01-19T16:46:46.517Z,4.61
2023-01-19T16:49:17.469Z,4.61
2023-01-19T16:51:44.372Z,4.60
2023-01-19T16:54:15.342Z,4.57
2023-01-19T16:56:42.123Z,4.54
2023-01-19T16:59:15.044Z,4.51
2023-01-19T17:01:43.711Z,4.48
2023-01-19T17:04:11.668Z,4.44
2023-01-19T17:06:38.588Z,4.42
2023-01-19T17:09:06.108Z,4.42
2023-01-19T17:11:34.741Z,4.43
2023-01-19T17:14:13.357Z,4.42
2023-01-19T17:16:40.300Z,4.43
2023-01-19T17:19:07.430Z,4.42
2023-01-19T17:21:34.714Z,4.42
2023-01-19T17:24:01.597Z,4.39
2023-01-19T17:26:30.729Z,4.39
2023-01-19T17:29:00.908Z,4.38
2023-01-19T17:31:28.064Z,4.37
2023-01-19T17:33:54.659Z,4.40
2023-01-19T17:36:25.184Z,4.42
2023-01-19T17:38:53.300Z,4.43
2023-01-19T17:41:28.760Z,4.44
2023-01-19T17:43:56.045Z,4.45
2023-01-19T17:46:25.022Z,4.44
2023-01-19T17:48:53.178Z,4.33
2023-01-19T17:51:19.999Z,4.29
2023-01-19T17:53:46.490Z,4.30
2023-01-19T17:56:15.018Z,4.30
2023-01-19T17:58:41.677Z,4.27
2023-01-19T18:01:13.677Z,4.30
2023-01-19T18:03:40.975Z,4.29
2023-01-19T18:06:07.779Z,4.32
2023-01-19T18:08:36.120Z,4.36
2023-01-19T18:11:03.118Z,4.40
2023-01-19T18:13:29.891Z,4.43
2023-01-19T18:16:01.123Z,4.44
2023-01-19T18:18:28.258Z,4.41
2023-01-19T18:21:08.021Z,4.37
2023-01-19T18:23:35.336Z,4.29
2023-01-19T18:26:04.626Z,4.24
2023-01-19T18:28:31.526Z,4.18
2023-01-19T18:30:58.208Z,4.13
2023-01-19T18:33:25.709Z,4.08
2023-01-19T18:35:52.190Z,4.05
2023-01-19T18:38:18.803Z,3.97
2023-01-19T18:40:45.355Z,3.90
2023-01-19T18:43:12.471Z,3.85
2023-01-19T18:45:41.666Z,3.81
2023-01-19T18:48:26.194Z,3.77
2023-01-19T18:50:53.425Z,3.74
2023-01-19T18:53:20.458Z,3.67
2023-01-19T18:55:52.215Z,3.58
2023-01-19T18:58:19.741Z,3.51
2023-01-19T19:00:46.310Z,3.51
2023-01-19T19:03:12.970Z,3.50
2023-01-19T19:05:39.729Z,3.51
2023-01-19T19:08:07.095Z,3.50
2023-01-19T19:10:33.618Z,3.51
2023-01-19T19:13:00.052Z,3.49
2023-01-19T19:15:27.150Z,3.47
2023-01-19T19:17:54.455Z,3.45
2023-01-19T19:20:22.648Z,3.44
2023-01-19T19:22:49.679Z,3.43
2023-01-19T19:25:16.207Z,3.41
2023-01-19T19:27:45.222Z,3.41
2023-01-19T19:30:13.423Z,3.40
2023-01-19T19:32:40.133Z,3.43
2023-01-19T19:35:07.164Z,3.42
2023-01-19T19:37:33.783Z,3.41
2023-01-19T19:40:00.283Z,3.40
2023-01-19T19:42:28.803Z,3.35
2023-01-19T19:44:55.321Z,3.32
2023-01-19T19:47:21.823Z,3.27
2023-01-19T19:49:48.214Z,3.23
2023-01-19T19:52:14.684Z,3.25
2023-01-19T19:54:41.052Z,3.24
2023-01-19T19:57:07.439Z,3.25
2023-01-19T19:59:33.805Z,3.23
2023-01-19T20:02:00.261Z,3.17
2023-01-19T20:04:26.856Z,3.11
2023-01-19T20:06:53.367Z,3.10
2023-01-19T20:09:19.784Z,3.13
2023-01-19T20:11:48.883Z,3.12
2023-01-19T20:14:16.233Z,3.10
2023-01-19T20:16:42.902Z,3.09
2023-01-19T20:19:09.431Z,3.09
2023-01-19T20:21:37.507Z,3.09
2023-01-19T20:24:07.480Z,3.08
2023-01-19T20:26:36.876Z,3.07
2023-01-19T20:29:07.832Z,3.03
2023-01-19T20:31:37.664Z,3.06
2023-01-19T20:34:07.779Z,3.06
2023-01-19T20:36:34.231Z,3.01
2023-01-19T20:39:02.722Z,3.02
2023-01-19T20:41:29.077Z,3.06
2023-01-19T20:43:55.581Z,3.05
2023-01-19T20:46:22.073Z,2.99
2023-01-19T20:48:52.698Z,2.99
2023-01-19T20:51:20.128Z,2.95
2023-01-19T20:53:47.224Z,2.97
2023-01-19T20:56:14.831Z,2.98
2023-01-19T20:58:42.190Z,2.97
2023-01-19T21:01:16.485Z,2.96
2023-01-19T21:03:43.095Z,2.96
2023-01-19T21:06:10.571Z,2.92
2023-01-19T21:08:37.774Z,2.93
2023-01-19T21:11:05.613Z,2.93
2023-01-19T21:13:32.530Z,2.92
2023-01-19T21:15:59.399Z,2.90
2023-01-19T21:18:27.822Z,2.83
2023-01-19T21:20:55.506Z,2.82
2023-01-19T21:23:21.910Z,2.78
2023-01-19T21:25:53.697Z,2.76
2023-01-19T21:28:21.631Z,2.74
2023-01-19T21:30:48.828Z,2.77
2023-01-19T21:33:16.041Z,2.77
2023-01-19T21:35:55.383Z,2.74
2023-01-19T21:38:23.490Z,2.73
2023-01-19T21:40:50.229Z,2.70
2023-01-19T21:43:17.426Z,2.67
2023-01-19T21:45:43.927Z,2.71
2023-01-19T21:48:10.638Z,2.70
2023-01-19T21:50:38.143Z,2.65
2023-01-19T21:53:07.664Z,2.67
2023-01-19T21:55:34.206Z,2.64
2023-01-19T21:58:00.729Z,2.63
2023-01-19T22:00:31.559Z,2.62
2023-01-19T22:03:03.871Z,2.62
2023-01-19T22:05:36.840Z,2.62
2023-01-19T22:08:04.853Z,2.62
2023-01-19T22:10:31.611Z,2.64
2023-01-19T22:12:58.029Z,2.66
2023-01-19T22:15:24.484Z,2.67
2023-01-19T22:17:50.922Z,2.67
2023-01-19T22:20:17.387Z,2.64
2023-01-19T22:22:43.787Z,2.63
2023-01-19T22:25:10.302Z,2.63
2023-01-19T22:27:37.372Z,2.60
2023-01-19T22:30:04.070Z,2.65
2023-01-19T22:32:31.324Z,2.63
2023-01-19T22:34:57.792Z,2.62
2023-01-19T22:37:24.641Z,2.60
2023-01-19T22:39:52.625Z,2.58
2023-01-19T22:42:19.044Z,2.59
2023-01-19T22:44:46.807Z,2.61
2023-01-19T22:47:13.275Z,2.61
2023-01-19T22:49:40.591Z,2.63
2023-01-19T22:52:07.036Z,2.64
2023-01-19T22:54:33.487Z,2.64
2023-01-19T22:57:00.028Z,2.60
2023-01-19T22:59:26.485Z,2.58
2023-01-19T23:01:53.213Z,2.61
2023-01-19T23:04:19.822Z,2.62
2023-01-19T23:06:50.310Z,2.62
2023-01-19T23:09:17.396Z,2.65
2023-01-19T23:11:50.056Z,2.66
2023-01-19T23:14:19.494Z,2.69
2023-01-19T23:16:47.019Z,2.70
2023-01-19T23:19:14.384Z,2.70
2023-01-19T23:21:40.975Z,2.72
2023-01-19T23:24:07.727Z,2.70
2023-01-19T23:26:38.061Z,2.70
2023-01-19T23:29:15.350Z,2.64
2023-01-19T23:31:46.964Z,2.57
2023-01-19T23:34:14.206Z,2.46
2023-01-19T23:36:42.741Z,2.38
2023-01-19T23:39:18.419Z,2.29
2023-01-19T23:41:45.201Z,2.27
2023-01-19T23:44:11.822Z,2.30
2023-01-19T23:46:38.745Z,2.27
2023-01-19T23:49:05.486Z,2.19
2023-01-19T23:51:33.243Z,2.17
2023-01-19T23:54:00.653Z,2.19
2023-01-19T23:56:33.329Z,2.25
2023-01-19T23:59:05.717Z,2.28
